Time;durP1;ratioP1;P1;durP2;ratioP2;P2;SDS_P1;SDS_P2;PMS_P1;PMS_P2;Temp;Humidity;BMP_temperature;BMP_pressure;BME280_temperature;BME280_humidity;BME280_pressure;Samples;Min_cycle;Max_cycle;Signal;HPM_P1;HPM_P2
2022/07/13 00:00:35;;;;;;;3.75;2.00;;;;;;;22.40;35.50;99966.41;5072112;28;20103;-42
2022/07/13 00:03:01;;;;;;;3.50;2.00;;;;;;;22.42;35.46;99969.66;5072289;28;20108;-42
2022/07/13 00:05:27;;;;;;;3.50;2.00;;;;;;;21.69;36.58;99958.44;5072301;28;20025;-43
2022/07/13 00:07:52;;;;;;;2.88;2.10;;;;;;;21.79;36.68;99964.63;5071941;28;20393;-43
2022/07/13 00:10:17;;;;;;;3.10;2.08;;;;;;;22.05;35.97;99972.72;5070991;28;20055;-42
2022/07/13 00:12:43;;;;;;;3.75;2.17;;;;;;;21.97;35.98;99965.13;5071880;28;20041;-43
2022/07/13 00:15:09;;;;;;;3.63;2.20;;;;;;;21.45;37.46;99970.59;5072015;28;20119;-43
2022/07/13 00:17:34;;;;;;;2.92;2.10;;;;;;;21.57;36.72;99966.81;5071828;28;20095;-42
2022/07/13 00:20:00;;;;;;;2.97;2.10;;;;;;;21.63;36.82;99968.44;5072352;28;20572;-42
2022/07/13 00:22:25;;;;;;;2.88;2.00;;;;;;;21.65;36.38;99969.00;5072043;28;20017;-43
2022/07/13 00:24:51;;;;;;;4.22;2.10;;;;;;;21.77;36.02;99964.09;5071620;28;20408;-41
2022/07/13 00:27:16;;;;;;;2.90;1.85;;;;;;;21.84;36.02;99971.94;5072315;28;20028;-42
2022/07/13 00:29:42;;;;;;;6.25;1.88;;;;;;;21.78;36.01;99971.16;5071752;28;20404;-41
2022/07/13 00:32:07;;;;;;;2.58;1.90;;;;;;;21.62;36.13;99972.22;5070456;28;20079;-41
2022/07/13 00:34:32;;;;;;;2.42;1.98;;;;;;;21.62;36.52;99974.94;5071876;28;20031;-41
2022/07/13 00:36:58;;;;;;;4.32;2.05;;;;;;;21.44;36.50;99974.38;5071951;28;20016;-42
2022/07/13 00:39:24;;;;;;;4.43;1.95;;;;;;;21.34;36.87;99973.53;5071452;28;20025;-43
2022/07/13 00:41:49;;;;;;;3.85;2.15;;;;;;;21.36;36.63;99974.91;5071894;28;20020;-42
2022/07/13 00:44:16;;;;;;;3.38;2.03;;;;;;;21.53;36.25;99973.84;5071464;28;20099;-42
2022/07/13 00:46:47;;;;;;;5.22;2.30;;;;;;;21.59;36.08;99967.34;5071484;28;20170;-42
2022/07/13 00:49:13;;;;;;;3.17;2.00;;;;;;;21.95;35.67;99964.59;5071219;28;20028;-42
2022/07/13 00:51:39;;;;;;;5.13;2.20;;;;;;;21.90;35.67;99973.56;5071224;28;20059;-37
2022/07/13 00:54:05;;;;;;;5.22;2.28;;;;;;;21.84;35.55;99967.34;5071123;28;20028;-36
2022/07/13 00:56:31;;;;;;;3.47;2.00;;;;;;;21.50;36.17;99964.38;5071536;28;20468;-37
2022/07/13 00:58:58;;;;;;;2.65;1.90;;;;;;;21.58;36.54;99963.03;5071083;28;20116;-37
2022/07/13 01:01:24;;;;;;;5.15;1.92;;;;;;;20.97;37.77;99955.63;5071188;28;20036;-37
2022/07/13 01:03:50;;;;;;;2.55;1.95;;;;;;;21.03;37.61;99951.84;5071349;28;20028;-36
2022/07/13 01:06:17;;;;;;;2.88;1.88;;;;;;;20.88;37.59;99949.91;5071174;28;20033;-37
2022/07/13 01:08:42;;;;;;;5.68;2.20;;;;;;;21.08;36.97;99960.78;5070935;28;20178;-37
2022/07/13 01:11:09;;;;;;;3.45;2.15;;;;;;;20.97;37.30;99952.91;5070862;28;20452;-37
2022/07/13 01:13:35;;;;;;;3.85;2.10;;;;;;;21.01;37.64;99957.50;5070927;28;20028;-42
2022/07/13 01:16:02;;;;;;;4.82;2.10;;;;;;;20.72;37.92;99956.38;5070797;28;20020;-42
2022/07/13 01:18:28;;;;;;;5.53;2.17;;;;;;;20.77;37.92;99956.38;5070910;28;20103;-42
2022/07/13 01:20:54;;;;;;;3.60;1.92;;;;;;;20.76;37.72;99952.84;5070673;28;20029;-42
2022/07/13 01:23:19;;;;;;;4.32;2.00;;;;;;;21.14;37.58;99963.50;5070370;28;20036;-42
2022/07/13 01:25:45;;;;;;;2.70;2.08;;;;;;;21.46;36.84;99957.88;5070611;28;20055;-42
2022/07/13 01:28:14;;;;;;;3.85;1.98;;;;;;;21.28;36.88;99953.75;5070857;28;20086;-42
2022/07/13 01:30:39;;;;;;;5.70;2.10;;;;;;;20.88;37.83;99956.13;5070981;28;20107;-41
2022/07/13 01:33:05;;;;;;;4.40;2.00;;;;;;;21.36;36.89;99952.41;5070638;28;20486;-42
2022/07/13 01:35:30;;;;;;;3.38;2.30;;;;;;;21.03;37.57;99949.13;5070749;28;20032;-41
2022/07/13 01:37:56;;;;;;;3.67;2.00;;;;;;;20.88;37.28;99948.00;5070493;28;20404;-42
2022/07/13 01:40:22;;;;;;;3.05;1.90;;;;;;;20.96;37.71;99941.28;5070824;28;20025;-42
2022/07/13 01:42:49;;;;;;;2.20;1.85;;;;;;;21.03;37.31;99933.72;5070530;28;20031;-43
2022/07/13 01:45:17;;;;;;;2.90;1.95;;;;;;;21.01;37.25;99930.47;5070243;28;20036;-42
2022/07/13 01:47:45;;;;;;;3.83;2.10;;;;;;;20.81;38.01;99943.94;5070463;28;20028;-43
2022/07/13 01:50:13;;;;;;;3.75;2.10;;;;;;;20.92;37.75;99936.66;5070028;28;20139;-42
2022/07/13 01:52:38;;;;;;;3.38;1.90;;;;;;;20.55;38.05;99937.63;5070427;28;20024;-36
2022/07/13 01:55:05;;;;;;;2.92;2.10;;;;;;;20.29;38.62;99942.91;5070111;28;20032;-36
2022/07/13 01:57:32;;;;;;;2.85;2.15;;;;;;;20.29;38.66;99946.41;5070180;28;20040;-36
2022/07/13 02:00:21;;;;;;;3.38;2.00;;;;;;;20.74;37.94;99943.41;5070094;28;20024;-36
2022/07/13 02:02:48;;;;;;;3.15;1.98;;;;;;;20.72;37.98;99934.75;5070176;28;20064;-42
2022/07/13 02:05:14;;;;;;;3.35;2.00;;;;;;;20.69;37.49;99934.19;5070042;28;20032;-43
2022/07/13 02:07:41;;;;;;;2.38;1.80;;;;;;;21.02;37.23;99937.50;5070429;28;20615;-42
2022/07/13 02:10:08;;;;;;;5.60;1.90;;;;;;;20.87;37.54;99940.19;5070339;28;20125;-41
2022/07/13 02:12:33;;;;;;;3.67;2.03;;;;;;;20.81;37.69;99941.22;5070377;28;20472;-43
2022/07/13 02:15:00;;;;;;;3.67;1.98;;;;;;;20.61;38.12;99940.09;5069692;28;20077;-43
2022/07/13 02:17:26;;;;;;;3.05;1.90;;;;;;;20.55;38.09;99937.63;5069745;28;20027;-42
2022/07/13 02:19:51;;;;;;;3.65;2.03;;;;;;;20.50;38.31;99938.41;5070251;28;20036;-40
2022/07/13 02:22:17;;;;;;;2.88;2.08;;;;;;;20.63;38.23;99931.72;5070188;28;20469;-40
2022/07/13 02:24:42;;;;;;;5.70;1.95;;;;;;;20.83;37.79;99931.00;5069976;28;20547;-41
2022/07/13 02:27:08;;;;;;;3.30;2.10;;;;;;;20.69;37.79;99939.59;5069840;28;20020;-43
2022/07/13 02:29:33;;;;;;;2.92;2.33;;;;;;;20.49;38.51;99939.50;5070145;28;20033;-42
2022/07/13 02:31:59;;;;;;;3.13;2.05;;;;;;;20.19;39.15;99935.56;5070275;28;20450;-41
2022/07/13 02:34:27;;;;;;;3.08;2.03;;;;;;;20.01;39.09;99941.41;5073448;28;20060;-43
2022/07/13 02:36:56;;;;;;;3.42;2.30;;;;;;;19.91;39.64;99934.88;5073785;28;20033;-42
2022/07/13 02:39:22;;;;;;;3.28;2.00;;;;;;;20.08;39.48;99936.59;5074273;28;20036;-42
2022/07/13 02:41:49;;;;;;;4.85;2.10;;;;;;;19.79;39.92;99939.66;5073691;28;20038;-42
2022/07/13 02:44:15;;;;;;;3.38;2.00;;;;;;;19.79;40.22;99933.44;5073776;28;20070;-43
2022/07/13 02:46:40;;;;;;;3.33;2.08;;;;;;;20.17;39.56;99939.63;5073962;28;20068;-43
2022/07/13 02:49:06;;;;;;;2.85;1.90;;;;;;;20.47;38.69;99936.25;5073475;28;20546;-41
2022/07/13 02:51:31;;;;;;;6.78;2.47;;;;;;;20.40;38.31;99932.97;5073756;28;20500;-41
2022/07/13 02:53:57;;;;;;;7.38;2.50;;;;;;;20.29;38.93;99948.31;5073609;28;20031;-41
2022/07/13 02:56:22;;;;;;;4.38;2.08;;;;;;;20.22;39.24;99948.56;5073954;28;20111;-41
2022/07/13 02:58:47;;;;;;;3.28;1.90;;;;;;;20.35;38.76;99941.84;5073190;28;20039;-41
2022/07/13 03:01:13;;;;;;;4.28;2.00;;;;;;;20.43;38.52;99948.66;5073350;28;20472;-41
2022/07/13 03:03:38;;;;;;;3.22;1.90;;;;;;;20.22;38.75;99942.31;5073410;28;20345;-43
2022/07/13 03:06:04;;;;;;;7.13;2.13;;;;;;;20.34;38.57;99944.84;5073292;28;20021;-41
2022/07/13 03:08:29;;;;;;;5.63;2.20;;;;;;;20.25;38.98;99931.00;5073133;28;20064;-41
2022/07/13 03:10:55;;;;;;;3.60;2.10;;;;;;;20.18;39.25;99936.66;5073137;28;20480;-41
2022/07/13 03:13:20;;;;;;;4.32;2.20;;;;;;;19.68;40.21;99937.91;5073082;28;20593;-43
2022/07/13 03:15:46;;;;;;;5.53;2.20;;;;;;;19.85;39.73;99927.81;5073149;28;20439;-41
2022/07/13 03:18:11;;;;;;;2.63;2.10;;;;;;;19.96;40.01;99939.50;5073095;28;20103;-42
2022/07/13 03:20:38;;;;;;;4.70;2.30;;;;;;;19.78;40.02;99939.91;5072537;28;20030;-41
2022/07/13 03:23:04;;;;;;;3.25;2.53;;;;;;;19.94;39.77;99944.34;5072823;28;20024;-41
2022/07/13 03:25:29;;;;;;;4.30;2.20;;;;;;;19.91;40.03;99943.00;5073300;28;20016;-42
2022/07/13 03:27:55;;;;;;;4.88;2.33;;;;;;;19.75;40.28;99948.53;5072936;28;20341;-41
2022/07/13 03:30:20;;;;;;;4.25;2.10;;;;;;;19.82;40.04;99952.66;5072650;28;20419;-41
2022/07/13 03:32:45;;;;;;;4.53;2.10;;;;;;;19.62;40.38;99947.06;5072815;28;20078;-41
2022/07/13 03:35:11;;;;;;;7.20;2.13;;;;;;;19.86;40.22;99942.94;5072514;28;20020;-41
2022/07/13 03:37:37;;;;;;;4.03;2.08;;;;;;;19.80;40.14;99940.44;5082447;28;20035;-36
2022/07/13 03:40:03;;;;;;;4.80;2.17;;;;;;;19.85;40.23;99945.91;5081040;28;20024;-36
2022/07/13 03:42:29;;;;;;;5.35;2.10;;;;;;;19.90;40.08;99935.94;5083509;28;20054;-36
2022/07/13 03:44:54;;;;;;;5.35;1.98;;;;;;;20.11;39.78;99947.69;5084215;28;20052;-42
2022/07/13 03:47:20;;;;;;;3.03;1.80;;;;;;;20.34;39.30;99950.25;5087383;28;20539;-41
2022/07/13 03:49:45;;;;;;;3.70;1.90;;;;;;;20.53;38.77;99947.88;5079542;28;20436;-36
2022/07/13 03:52:11;;;;;;;4.70;2.05;;;;;;;20.71;38.30;99939.31;5089649;28;20103;-36
2022/07/13 03:54:36;;;;;;;6.75;2.17;;;;;;;21.26;37.38;99945.09;5092490;28;20016;-36
2022/07/13 03:57:01;;;;;;;5.55;2.10;;;;;;;21.53;37.29;99949.47;5091733;28;20108;-42
2022/07/13 03:59:27;;;;;;;4.10;2.28;;;;;;;21.65;36.98;99948.13;5092954;28;20074;-42
2022/07/13 04:01:52;;;;;;;5.47;2.08;;;;;;;21.96;37.28;99955.41;5092470;28;20049;-42
2022/07/13 04:04:18;;;;;;;5.40;1.98;;;;;;;22.49;35.52;99949.59;5092685;28;20107;-42
2022/07/13 04:06:43;;;;;;;7.75;2.20;;;;;;;22.63;35.64;99948.69;5093066;28;20026;-41
2022/07/13 04:09:08;;;;;;;8.18;2.13;;;;;;;22.76;35.19;99943.75;5092584;28;20471;-43
2022/07/13 04:11:34;;;;;;;10.45;2.10;;;;;;;23.05;34.79;99943.06;5092740;28;20035;-43
2022/07/13 04:13:59;;;;;;;6.80;1.80;;;;;;;22.78;35.11;99957.84;5092128;28;20020;-42
2022/07/13 04:16:25;;;;;;;5.47;1.85;;;;;;;23.27;34.51;99953.53;5081782;28;20016;-42
2022/07/13 04:18:50;;;;;;;2.17;1.83;;;;;;;23.46;34.04;99951.75;5071949;28;20028;-41
2022/07/13 04:21:15;;;;;;;3.05;2.00;;;;;;;23.26;33.92;99952.69;5071361;28;20031;-42
2022/07/13 04:23:41;;;;;;;7.68;1.92;;;;;;;23.07;34.31;99954.47;5079382;28;20371;-42
2022/07/13 04:26:07;;;;;;;4.60;2.10;;;;;;;22.97;34.17;99945.25;5091165;28;20016;-42
2022/07/13 04:28:32;;;;;;;4.70;1.80;;;;;;;23.51;33.32;99956.31;5092136;28;20024;-42
2022/07/13 04:30:58;;;;;;;7.47;1.67;;;;;;;23.71;33.06;99955.31;5091879;28;20513;-40
2022/07/13 04:33:23;;;;;;;6.35;2.20;;;;;;;24.38;32.16;99956.25;5089860;28;20461;-44
2022/07/13 04:35:49;;;;;;;3.95;1.80;;;;;;;24.65;31.68;99956.78;5089634;28;20089;-41
2022/07/13 04:38:14;;;;;;;4.65;1.77;;;;;;;24.98;31.25;99955.00;5088759;28;20243;-43
2022/07/13 04:40:40;;;;;;;6.43;1.70;;;;;;;25.31;30.71;99957.78;5089006;28;20035;-42
2022/07/13 04:43:05;;;;;;;4.10;1.65;;;;;;;25.18;30.94;99959.31;5087974;28;20109;-42
2022/07/13 04:45:32;;;;;;;4.07;1.67;;;;;;;25.36;30.33;99961.25;5088142;28;20044;-42
2022/07/13 04:47:58;;;;;;;4.63;1.88;;;;;;;25.18;30.77;99956.59;5089169;28;20496;-43
2022/07/13 04:50:24;;;;;;;6.60;1.90;;;;;;;25.53;30.43;99962.59;5089785;28;20059;-43
2022/07/13 04:52:50;;;;;;;6.82;1.65;;;;;;;25.66;30.23;99950.94;5090707;28;20028;-42
2022/07/13 04:55:16;;;;;;;4.40;1.67;;;;;;;25.43;30.34;99962.78;5089830;28;20074;-43
2022/07/13 04:57:41;;;;;;;4.28;1.75;;;;;;;25.79;29.94;99962.19;5090697;28;20028;-42
2022/07/13 05:00:08;;;;;;;6.72;1.58;;;;;;;26.26;29.43;99971.94;5090994;28;20480;-42
2022/07/13 05:02:34;;;;;;;4.53;1.67;;;;;;;26.62;28.92;99974.00;5091511;28;20051;-43
2022/07/13 05:04:59;;;;;;;4.50;1.50;;;;;;;26.87;28.72;99963.63;5091020;28;20455;-44
2022/07/13 05:07:24;;;;;;;4.70;1.83;;;;;;;26.17;29.24;99973.75;5090760;28;20016;-44
2022/07/13 05:09:50;;;;;;;7.72;1.70;;;;;;;26.57;28.70;99976.00;5091147;28;20039;-43
2022/07/13 05:12:15;;;;;;;5.32;1.65;;;;;;;26.81;28.49;99975.78;5090935;28;20019;-41
2022/07/13 05:14:41;;;;;;;3.47;1.60;;;;;;;26.94;28.42;99979.59;5090538;28;20031;-42
2022/07/13 05:17:06;;;;;;;5.80;1.70;;;;;;;26.58;28.58;99983.03;5090822;28;20099;-42
2022/07/13 05:19:31;;;;;;;6.65;1.70;;;;;;;26.54;28.63;99974.69;5090946;28;20027;-43
2022/07/13 05:21:57;;;;;;;4.60;1.80;;;;;;;27.25;27.88;99979.75;5090754;28;20012;-44
2022/07/13 05:24:22;;;;;;;4.78;1.42;;;;;;;27.16;27.98;99982.34;5090365;28;20453;-40
2022/07/13 05:26:48;;;;;;;2.78;1.58;;;;;;;28.06;26.84;99984.28;5090673;28;20537;-42
2022/07/13 05:29:13;;;;;;;5.57;1.58;;;;;;;27.43;27.79;99978.72;5090886;28;20024;-41
2022/07/13 05:31:39;;;;;;;5.07;1.67;;;;;;;27.95;27.95;99985.66;5090838;28;20413;-41
2022/07/13 05:34:04;;;;;;;5.28;1.38;;;;;;;27.36;27.81;99970.19;5090871;28;20028;-41
2022/07/13 05:36:30;;;;;;;4.50;1.60;;;;;;;27.20;27.84;99977.88;5091494;28;20070;-42
2022/07/13 05:38:55;;;;;;;8.20;1.73;;;;;;;26.83;28.38;99976.28;5090754;28;20028;-43
2022/07/13 05:41:21;;;;;;;3.65;1.60;;;;;;;27.16;28.15;99982.34;5090742;28;20031;-42
2022/07/13 05:43:47;;;;;;;4.28;1.70;;;;;;;26.89;28.40;99977.78;5090113;28;20016;-41
2022/07/13 05:46:12;;;;;;;6.55;1.40;;;;;;;26.64;28.78;99968.22;5090508;28;20475;-43
2022/07/13 05:48:37;;;;;;;2.97;1.77;;;;;;;27.87;27.77;99973.53;5089907;28;20031;-41
2022/07/13 05:51:03;;;;;;;11.45;1.90;;;;;;;28.06;27.13;99976.06;5090148;28;20052;-42
2022/07/13 05:53:29;;;;;;;4.47;1.50;;;;;;;28.20;26.94;99971.31;5090179;28;20093;-43
2022/07/13 05:55:54;;;;;;;3.47;1.50;;;;;;;28.53;26.88;99967.44;5090286;28;20357;-42
2022/07/13 05:58:21;;;;;;;5.40;1.42;;;;;;;28.95;26.38;99973.28;5090268;28;20102;-43
2022/07/13 06:00:46;;;;;;;4.82;1.60;;;;;;;29.00;25.99;99970.41;5090085;28;20024;-42
2022/07/13 06:03:12;;;;;;;5.38;1.70;;;;;;;28.69;26.38;99973.25;5090288;28;20031;-42
2022/07/13 06:05:37;;;;;;;4.72;1.60;;;;;;;28.24;26.49;99963.28;5090415;28;20028;-42
2022/07/13 06:08:03;;;;;;;7.47;1.75;;;;;;;28.83;26.19;99950.06;5089469;28;20480;-43
2022/07/13 06:10:28;;;;;;;2.75;1.48;;;;;;;28.27;26.07;99938.84;5090143;28;20020;-43
2022/07/13 06:12:53;;;;;;;5.55;1.60;;;;;;;28.26;26.46;99953.63;5090731;28;20069;-43
2022/07/13 06:15:19;;;;;;;4.05;1.42;;;;;;;27.83;26.68;99951.47;5089923;28;20141;-43
2022/07/13 06:17:44;;;;;;;5.53;1.90;;;;;;;27.73;26.98;99953.69;5090185;28;20032;-44
2022/07/13 06:20:10;;;;;;;5.88;1.60;;;;;;;27.95;27.18;99953.69;5089999;28;20020;-43
2022/07/13 06:22:36;;;;;;;5.93;1.27;;;;;;;28.56;26.67;99953.91;5090049;28;20380;-41
2022/07/13 06:25:03;;;;;;;6.30;1.80;;;;;;;28.83;26.11;99962.97;5089707;28;20085;-42
2022/07/13 06:27:29;;;;;;;5.20;1.60;;;;;;;28.74;26.25;99952.00;5090112;28;20020;-41
2022/07/13 06:29:54;;;;;;;3.92;1.52;;;;;;;29.04;26.25;99952.19;5089922;28;20023;-43
2022/07/13 06:32:20;;;;;;;5.13;1.50;;;;;;;29.90;24.90;99958.69;5089687;28;20388;-43
2022/07/13 06:34:45;;;;;;;8.77;1.40;;;;;;;30.14;24.83;99960.88;5089926;28;20095;-43
2022/07/13 06:37:11;;;;;;;5.13;1.63;;;;;;;30.40;24.64;99963.50;5089842;28;20024;-43
2022/07/13 06:39:36;;;;;;;5.78;1.70;;;;;;;29.88;24.64;99960.16;5090075;28;20031;-41
2022/07/13 06:42:02;;;;;;;6.88;1.60;;;;;;;30.19;24.88;99957.94;5089573;28;20099;-44
2022/07/13 06:44:27;;;;;;;3.83;1.20;;;;;;;29.94;24.93;99959.66;5089900;28;20081;-42
2022/07/13 06:46:53;;;;;;;2.03;1.00;;;;;;;30.63;23.80;99957.72;5089688;28;20024;-42
2022/07/13 06:49:18;;;;;;;6.07;1.33;;;;;;;30.90;23.85;99955.63;5089976;28;20048;-40
2022/07/13 06:51:43;;;;;;;3.88;1.20;;;;;;;31.07;23.53;99941.75;5089856;28;20020;-43
2022/07/13 06:54:09;;;;;;;3.72;1.30;;;;;;;30.47;23.77;99945.72;5089481;28;20496;-42
2022/07/13 06:56:34;;;;;;;8.52;1.55;;;;;;;29.87;24.33;99951.13;5089614;28;20032;-42
2022/07/13 06:59:00;;;;;;;6.97;1.63;;;;;;;30.08;24.62;99944.91;5089523;28;20020;-44
2022/07/13 07:01:25;;;;;;;2.25;1.20;;;;;;;30.20;24.74;99942.28;5089602;28;20051;-42
2022/07/13 07:03:51;;;;;;;4.10;1.27;;;;;;;30.43;24.32;99940.09;5089277;28;20625;-43
2022/07/13 07:06:16;;;;;;;3.50;1.60;;;;;;;30.98;23.76;99941.03;5089976;28;20024;-42
2022/07/13 07:08:42;;;;;;;6.85;1.58;;;;;;;30.69;24.03;99942.66;5089571;28;20480;-42
2022/07/13 07:11:07;;;;;;;6.65;1.90;;;;;;;30.27;24.63;99939.81;5089843;28;20020;-43
2022/07/13 07:13:33;;;;;;;6.88;1.60;;;;;;;29.89;24.54;99943.38;5089625;28;20031;-43
2022/07/13 07:15:59;;;;;;;3.00;1.40;;;;;;;30.34;24.03;99942.06;5089570;28;20024;-42
2022/07/13 07:18:25;;;;;;;6.85;1.40;;;;;;;31.15;23.63;99943.63;5085485;28;20085;-42
2022/07/13 07:20:50;;;;;;;5.55;1.52;;;;;;;31.22;23.24;99945.00;5073719;28;20107;-43
2022/07/13 07:23:16;;;;;;;5.72;1.73;;;;;;;31.14;23.38;99931.00;5072860;28;20451;-41
2022/07/13 07:25:42;;;;;;;6.90;1.42;;;;;;;30.79;23.20;99935.97;5073029;28;20024;-42
2022/07/13 07:28:09;;;;;;;3.65;1.20;;;;;;;30.62;22.91;99953.38;5072956;28;20028;-41
2022/07/13 07:30:36;;;;;;;1.85;1.05;;;;;;;30.14;23.28;99938.94;5071595;28;20408;-42
2022/07/13 07:33:01;;;;;;;4.50;1.58;;;;;;;29.99;23.58;99948.50;5073083;28;20032;-42
2022/07/13 07:35:27;;;;;;;4.22;1.20;;;;;;;30.47;22.72;99941.03;5072605;28;20031;-42
2022/07/13 07:37:52;;;;;;;5.65;1.30;;;;;;;30.43;22.73;99945.56;5072990;28;20490;-43
2022/07/13 07:40:17;;;;;;;4.55;1.45;;;;;;;30.28;23.40;99944.19;5072655;28;20029;-42
2022/07/13 07:42:43;;;;;;;6.82;1.50;;;;;;;30.88;23.12;99936.72;5072879;28;20104;-42
2022/07/13 07:45:09;;;;;;;6.07;1.40;;;;;;;30.98;22.83;99936.31;5072246;28;20408;-42
2022/07/13 07:47:35;;;;;;;3.58;1.05;;;;;;;30.27;23.67;99939.81;5072377;28;20028;-44
2022/07/13 07:50:00;;;;;;;4.55;1.60;;;;;;;31.05;22.93;99938.53;5072337;28;20575;-40
2022/07/13 07:52:26;;;;;;;6.82;1.40;;;;;;;30.56;23.19;99932.75;5072404;28;20400;-41
2022/07/13 07:54:51;;;;;;;3.25;1.15;;;;;;;31.56;22.15;99932.91;5072032;28;20345;-42
2022/07/13 07:57:17;;;;;;;3.60;1.50;;;;;;;32.14;22.14;99935.66;5071958;28;20021;-43
2022/07/13 07:59:42;;;;;;;4.10;1.40;;;;;;;31.63;22.38;99932.34;5071862;28;20476;-42
2022/07/13 08:02:09;;;;;;;6.85;1.33;;;;;;;32.14;21.75;99930.94;5072139;28;20034;-42
2022/07/13 08:04:34;;;;;;;4.07;1.10;;;;;;;31.36;22.30;99942.78;5072048;28;20032;-43
2022/07/13 08:07:00;;;;;;;5.25;1.08;;;;;;;31.75;21.80;99937.84;5071891;28;20020;-43
2022/07/13 08:09:26;;;;;;;3.70;1.08;;;;;;;31.44;21.47;99952.09;5071681;28;20024;-42
2022/07/13 08:11:51;;;;;;;3.13;1.10;;;;;;;31.93;21.86;99941.22;5071990;28;20472;-42
2022/07/13 08:14:16;;;;;;;4.63;1.27;;;;;;;31.86;21.66;99944.53;5071480;28;20025;-42
2022/07/13 08:16:42;;;;;;;7.18;1.23;;;;;;;32.02;21.34;99939.16;5072130;28;20021;-42
2022/07/13 08:19:07;;;;;;;3.65;1.10;;;;;;;32.02;20.53;99932.88;5072017;28;20040;-45
2022/07/13 08:21:34;;;;;;;2.28;1.00;;;;;;;32.49;20.72;99937.91;5071970;28;20490;-43
2022/07/13 08:23:59;;;;;;;1.55;0.93;;;;;;;32.76;20.16;99935.56;5071734;28;20036;-43
2022/07/13 08:26:30;;;;;;;4.45;1.08;;;;;;;32.60;19.81;99947.31;5071638;28;20024;-45
2022/07/13 08:28:58;;;;;;;1.77;0.90;;;;;;;32.07;20.05;99936.19;5071339;28;20031;-44
2022/07/13 08:31:24;;;;;;;3.65;1.02;;;;;;;32.57;20.33;99936.19;5070885;28;20028;-42
2022/07/13 08:39:20;;;;;;;4.82;1.40;;;;;;;31.11;21.60;99941.88;5071617;28;20411;-42
2022/07/13 08:41:46;;;;;;;3.28;0.88;;;;;;;31.54;20.99;99933.22;5071097;28;20077;-43
2022/07/13 08:44:12;;;;;;;2.45;1.00;;;;;;;32.45;20.47;99931.50;5071279;28;20028;-43
2022/07/13 08:46:39;;;;;;;2.75;1.00;;;;;;;31.53;20.66;99931.63;5071301;28;20513;-43
2022/07/13 08:49:05;;;;;;;2.55;0.90;;;;;;;31.47;21.39;99941.25;5070908;28;20081;-43
2022/07/13 08:51:34;;;;;;;3.03;0.90;;;;;;;31.84;20.78;99924.00;5071165;28;20043;-42
2022/07/13 08:54:01;;;;;;;3.83;1.20;;;;;;;31.81;20.13;99930.19;5071175;28;20028;-44
2022/07/13 08:56:27;;;;;;;4.55;1.00;;;;;;;31.77;20.72;99919.84;5071455;28;20029;-43
2022/07/13 08:58:52;;;;;;;1.83;0.82;;;;;;;30.80;21.01;99934.81;5071191;28;20016;-43
2022/07/13 09:01:19;;;;;;;2.10;1.10;;;;;;;31.58;20.56;99925.09;5070624;28;20028;-42
2022/07/13 09:03:45;;;;;;;2.92;0.85;;;;;;;31.64;20.67;99928.44;5070912;28;20020;-42
2022/07/13 09:06:44;;;;;;;5.53;1.10;;;;;;;32.49;20.26;99932.41;5070928;28;20048;-42
2022/07/13 09:09:38;;;;;;;3.83;1.00;;;;;;;32.30;20.70;99935.75;5070638;28;20051;-44
2022/07/13 09:12:21;;;;;;;4.95;1.08;;;;;;;32.18;19.82;99927.47;5070485;28;20042;-43
2022/07/13 09:15:01;;;;;;;3.80;0.85;;;;;;;32.20;20.43;99923.25;5070217;28;20351;-43
2022/07/13 09:17:34;;;;;;;3.45;0.98;;;;;;;32.38;19.92;99928.50;5069568;28;20039;-42
2022/07/13 09:20:18;;;;;;;2.50;1.00;;;;;;;32.48;19.39;99923.34;5070794;28;20123;-43
2022/07/13 09:22:50;;;;;;;3.08;0.90;;;;;;;32.44;19.78;99930.66;5070312;28;20108;-43
2022/07/13 09:25:26;;;;;;;3.20;0.90;;;;;;;31.55;20.02;99926.59;5070182;28;20134;-42
2022/07/13 09:27:53;;;;;;;3.85;1.17;;;;;;;31.89;19.51;99932.84;5070236;28;20108;-42
2022/07/13 09:30:24;;;;;;;3.47;1.08;;;;;;;32.29;20.01;99923.94;5070453;28;20024;-42
2022/07/13 09:32:53;;;;;;;5.30;1.45;;;;;;;32.32;20.44;99930.69;5070296;28;20052;-43
2022/07/13 09:35:20;;;;;;;3.38;1.38;;;;;;;32.40;19.67;99934.47;5070501;28;20085;-43
2022/07/13 09:37:47;;;;;;;1.27;0.80;;;;;;;32.54;20.06;99934.91;5070508;28;20020;-43
2022/07/13 09:40:17;;;;;;;1.88;0.95;;;;;;;32.59;19.28;99926.44;5070440;28;20106;-43
2022/07/13 09:42:43;;;;;;;3.05;1.10;;;;;;;32.71;19.73;99923.66;5070181;28;20103;-46
2022/07/13 09:48:13;;;;;;;2.47;1.15;;;;;;;32.73;19.27;99921.34;5047260;28;20377;-43
2022/07/13 09:50:40;;;;;;;6.15;1.17;;;;;;;32.69;20.07;99925.97;5070652;28;20059;-43
2022/07/13 09:53:28;;;;;;;2.85;1.20;;;;;;;32.32;19.69;99917.72;5070064;28;20115;-43
2022/07/13 09:55:55;;;;;;;1.05;0.80;;;;;;;32.44;19.76;99916.09;5070294;28;20020;-43
2022/07/13 09:58:27;;;;;;;6.65;1.25;;;;;;;31.83;20.01;99914.16;5069861;28;20089;-44
2022/07/13 10:00:58;;;;;;;2.85;0.90;;;;;;;32.11;20.05;99909.59;5069849;28;20063;-44
2022/07/13 10:03:24;;;;;;;3.25;1.20;;;;;;;32.51;19.65;99902.56;5070001;28;20050;-43
2022/07/13 10:05:52;;;;;;;2.33;1.10;;;;;;;32.17;19.69;99890.91;5070309;28;20107;-43
2022/07/13 10:08:18;;;;;;;2.75;1.10;;;;;;;31.71;20.38;99898.44;5070090;28;20028;-45
2022/07/13 10:10:45;;;;;;;4.22;1.20;;;;;;;32.12;20.17;99889.19;5070263;28;20020;-45
2022/07/13 10:13:12;;;;;;;2.90;0.90;;;;;;;32.14;19.71;99886.09;5069806;28;20048;-42
2022/07/13 10:15:39;;;;;;;3.03;1.10;;;;;;;32.27;19.94;99892.38;5069551;28;20055;-43
2022/07/13 10:18:07;;;;;;;4.82;0.90;;;;;;;32.46;19.66;99889.84;5070310;28;20035;-44
2022/07/13 10:20:33;;;;;;;4.90;0.93;;;;;;;32.86;19.60;99888.25;5070163;28;20558;-42
2022/07/13 10:22:59;;;;;;;2.15;1.00;;;;;;;33.06;18.79;99876.22;5069854;28;20547;-43
2022/07/13 10:25:41;;;;;;;2.33;1.10;;;;;;;32.96;17.90;99873.97;5070157;28;20125;-46
2022/07/13 10:28:09;;;;;;;2.90;1.00;;;;;;;32.99;18.81;99867.75;5069957;28;20111;-42
2022/07/13 10:30:35;;;;;;;2.08;0.80;;;;;;;32.76;19.12;99866.72;5070166;28;20044;-43
2022/07/13 10:33:20;;;;;;;3.40;1.15;;;;;;;32.61;20.21;99874.56;5070039;28;20033;-45
2022/07/13 10:35:49;;;;;;;2.60;1.10;;;;;;;32.42;20.11;99871.59;5075501;28;20056;-44
2022/07/13 10:38:20;;;;;;;5.63;1.40;;;;;;;32.65;19.38;99858.94;5090383;28;20047;-45
2022/07/13 10:40:46;;;;;;;4.88;1.40;;;;;;;32.84;18.80;99852.81;5091248;28;20058;-42
2022/07/13 10:43:13;;;;;;;4.68;1.10;;;;;;;32.17;19.85;99838.59;5090399;28;20059;-43
2022/07/13 10:45:52;;;;;;;3.67;1.13;;;;;;;32.08;20.04;99854.44;5090341;28;20027;-42
2022/07/13 10:48:24;;;;;;;3.67;1.00;;;;;;;32.34;20.26;99862.31;5090316;28;20116;-43
2022/07/13 10:50:55;;;;;;;3.03;1.08;;;;;;;32.86;19.65;99858.75;5090430;28;20298;-43
2022/07/13 10:53:46;;;;;;;2.58;1.10;;;;;;;33.04;19.39;99852.94;5091017;28;20028;-46
2022/07/13 10:56:19;;;;;;;1.88;1.00;;;;;;;33.30;18.25;99847.75;5088513;28;20403;-44
2022/07/13 10:58:49;;;;;;;3.15;0.98;;;;;;;33.44;18.94;99828.00;5094046;28;20026;-43
2022/07/13 11:01:43;;;;;;;1.77;1.00;;;;;;;33.26;19.37;99838.59;5091306;28;20035;-44
2022/07/13 11:04:12;;;;;;;2.35;1.30;;;;;;;33.08;19.89;99849.09;5075763;28;20119;-43
2022/07/13 11:06:39;;;;;;;5.18;1.27;;;;;;;32.95;20.80;99841.25;5072056;28;20456;-38
2022/07/13 11:09:08;;;;;;;2.40;1.10;;;;;;;33.34;19.52;99836.00;5072659;28;20472;-38
2022/07/13 11:11:34;;;;;;;5.85;1.27;;;;;;;33.10;20.12;99835.78;5072802;28;20542;-37
2022/07/13 11:13:59;;;;;;;2.47;1.42;;;;;;;33.19;19.89;99837.59;5072849;28;20052;-37
2022/07/13 11:16:49;;;;;;;5.50;2.08;;;;;;;33.10;20.30;99833.03;5073030;28;20052;-37
2022/07/13 11:19:15;;;;;;;1.60;1.08;;;;;;;33.57;19.72;99825.97;5071315;28;20028;-37
2022/07/13 11:22:06;;;;;;;5.45;2.13;;;;;;;33.41;20.05;99819.63;5072623;28;20043;-37
2022/07/13 11:25:38;;;;;;;5.30;1.30;;;;;;;33.07;20.20;99813.63;5072679;28;20103;-36
2022/07/13 11:27:43;;;;;;;9.43;1.70;;;;;;;33.49;20.06;99818.66;5063179;28;20468;-36
2022/07/13 11:30:13;;;;;;;3.95;1.15;;;;;;;33.96;19.59;99826.09;5071155;28;20039;-36
2022/07/13 11:32:39;;;;;;;3.38;1.58;;;;;;;33.50;19.03;99812.78;5072640;28;20028;-36
2022/07/13 11:35:05;;;;;;;3.55;1.33;;;;;;;33.78;18.59;99820.19;5072458;28;20021;-36
2022/07/13 11:37:31;;;;;;;2.83;1.33;;;;;;;34.14;18.47;99821.00;5072535;28;20024;-36
2022/07/13 11:39:56;;;;;;;2.75;1.10;;;;;;;33.60;18.41;99811.44;5072346;28;20051;-37
2022/07/13 11:42:25;;;;;;;4.22;1.40;;;;;;;33.28;18.47;99808.72;5072366;28;20036;-37